Time;durP1;ratioP1;P1;durP2;ratioP2;P2;SDS_P1;SDS_P2;PMS_P1;PMS_P2;Temp;Humidity;BMP_temperature;BMP_pressure;BME280_temperature;BME280_humidity;BME280_pressure;Samples;Min_cycle;Max_cycle;Signal;HPM_P1;HPM_P2
2022/08/23 00:07:21;;;;;;;;;;;;;;;;;;21166818;28;20000;-57
2022/08/23 00:17:23;;;;;;;;;;;;;;;;;;21166223;28;19923;-56
2022/08/23 00:27:25;;;;;;;;;;;;;;;;;;21166351;28;20379;-57
2022/08/23 00:37:27;;;;;;;;;;;;;;;;;;21164838;28;20014;-59
2022/08/23 00:47:47;;;;;;;;;;;;;;;;;;21164986;28;19930;-56
2022/08/23 00:57:49;;;;;;;;;;;;;;;;;;21163313;28;19967;-56
2022/08/23 01:07:50;;;;;;;;;;;;;;;;;;21166165;28;20035;-59
2022/08/23 01:17:52;;;;;;;;;;;;;;;;;;21163147;28;19924;-54
2022/08/23 01:27:56;;;;;;;;;;;;;;;;;;21162091;28;19924;-57
2022/08/23 01:37:59;;;;;;;;;;;;;;;;;;21161851;28;20374;-58
2022/08/23 01:48:02;;;;;;;;;;;;;;;;;;21161825;28;19924;-57
2022/08/23 01:58:06;;;;;;;;;;;;;;;;;;21161263;28;20341;-55
2022/08/23 02:18:33;;;;;;;;;;;;;;;;;;21173829;28;19923;-54
2022/08/23 02:28:43;;;;;;;;;;;;;;;;;;21174726;28;20011;-54
2022/08/23 02:38:50;;;;;;;;;;;;;;;;;;21173783;28;20418;-56
2022/08/23 02:48:57;;;;;;;;;;;;;;;;;;21172911;28;19924;-54
2022/08/23 02:59:00;;;;;;;;;;;;;;;;;;21172688;28;19924;-54
2022/08/23 03:09:04;;;;;;;;;;;;;;;;;;21172919;28;19923;-56
2022/08/23 03:19:09;;;;;;;;;;;;;;;;;;21170494;28;21341;-54
2022/08/23 03:29:11;;;;;;;;;;;;;;;;;;21169405;28;19924;-56
2022/08/23 03:39:14;;;;;;;;;;;;;;;;;;21168761;28;19963;-55
2022/08/23 03:49:16;;;;;;;;;;;;;;;;;;21168103;28;19992;-55
2022/08/23 03:59:18;;;;;;;;;;;;;;;;;;21167093;28;19924;-56
2022/08/23 04:09:21;;;;;;;;;;;;;;;;;;21166222;28;19924;-58
2022/08/23 04:19:24;;;;;;;;;;;;;;;;;;21165882;28;19924;-56
2022/08/23 04:29:26;;;;;;;;;;;;;;;;;;21165165;28;19927;-62
2022/08/23 04:42:16;;;;;;;;;;;;;;;;;;21164578;28;20344;-57
2022/08/23 04:49:50;;;;;;;;;;;;;;;;;;21164343;28;19924;-63
2022/08/23 04:59:52;;;;;;;;;;;;;;;;;;21162911;28;19924;-55
2022/08/23 05:09:54;;;;;;;;;;;;;;;;;;21162061;28;20094;-60
2022/08/23 05:19:55;;;;;;;;;;;;;;;;;;21162217;28;19924;-54
2022/08/23 05:29:57;;;;;;;;;;;;;;;;;;21162363;28;19924;-54
2022/08/23 05:39:59;;;;;;;;;;;;;;;;;;21161458;28;19935;-56
2022/08/23 05:50:01;;;;;;;;;;;;;;;;;;21169956;28;20309;-55
2022/08/23 06:00:03;;;;;;;;;;;;;;;;;;21158456;28;20238;-54
2022/08/23 06:10:05;;;;;;;;;;;;;;;;;;21176596;28;19998;-56
2022/08/23 06:20:08;;;;;;;;;;;;;;;;;;21156798;28;20367;-55
2022/08/23 06:30:09;;;;;;;;;;;;;;;;;;21175569;28;19923;-56
2022/08/23 06:40:11;;;;;;;;;;;;;;;;;;21176277;28;19924;-55
2022/08/23 06:50:13;;;;;;;;;;;;;;;;;;21187641;28;20435;-60
2022/08/23 07:00:15;;;;;;;;;;;;;;;;;;21174857;28;19924;-60
2022/08/23 07:10:17;;;;;;;;;;;;;;;;;;21171758;28;19930;-55
2022/08/23 07:20:19;;;;;;;;;;;;;;;;;;21170352;28;19963;-56
2022/08/23 07:30:20;;;;;;;;;;;;;;;;;;21170534;28;20391;-56
2022/08/23 07:40:22;;;;;;;;;;;;;;;;;;21168372;28;19923;-54
2022/08/23 07:50:25;;;;;;;;;;;;;;;;;;21167769;28;20020;-56
2022/08/23 08:00:27;;;;;;;;;;;;;;;;;;21166280;28;19988;-59
2022/08/23 08:10:29;;;;;;;;;;;;;;;;;;21165036;28;19932;-54
2022/08/23 08:20:34;;;;;;;;;;;;;;;;;;21165730;28;20010;-62
2022/08/23 08:30:37;;;;;;;;;;;;;;;;;;21165188;28;19931;-54
2022/08/23 08:40:39;;;;;;;;;;;;;;;;;;21164617;28;19930;-61
2022/08/23 08:50:41;;;;;;;;;;;;;;;;;;21163156;28;19931;-62
2022/08/23 09:00:43;;;;;;;;;;;;;;;;;;21162747;28;19946;-62
2022/08/23 09:10:44;;;;;;;;;;;;;;;;;;21164180;28;20427;-62
2022/08/23 09:20:46;;;;;;;;;;;;;;;;;;21165135;28;19924;-59
2022/08/23 09:30:47;;;;;;;;;;;;;;;;;;21179229;28;19971;-57
2022/08/23 09:40:49;;;;;;;;;;;;;;;;;;21181550;28;19924;-60
2022/08/23 09:50:56;;;;;;;;;;;;;;;;;;21179551;28;19924;-62
2022/08/23 10:00:58;;;;;;;;;;;;;;;;;;21177695;28;19923;-61
2022/08/23 10:11:00;;;;;;;;;;;;;;;;;;21176918;28;19977;-60
2022/08/23 10:21:02;;;;;;;;;;;;;;;;;;21176188;28;20022;-62
2022/08/23 10:31:05;;;;;;;;;;;;;;;;;;21175763;28;19927;-55
2022/08/23 10:41:07;;;;;;;;;;;;;;;;;;21137490;28;19935;-57
2022/08/23 10:51:09;;;;;;;;;;;;;;;;;;21088861;28;20007;-58
2022/08/23 11:01:11;;;;;;;;;;;;;;;;;;21098846;28;19924;-55
2022/08/23 11:11:12;;;;;;;;;;;;;;;;;;21173348;28;20375;-55
2022/08/23 11:21:15;;;;;;;;;;;;;;;;;;21171160;28;19924;-54
2022/08/23 11:31:17;;;;;;;;;;;;;;;;;;21187443;28;19934;-57
2022/08/23 11:41:18;;;;;;;;;;;;;;;;;;21184553;28;19924;-59
2022/08/23 11:51:21;;;;;;;;;;;;;;;;;;21170879;28;19966;-62
2022/08/23 12:01:23;;;;;;;;;;;;;;;;;;21178835;27;19969;-60
2022/08/23 12:11:25;;;;;;;;;;;;;;;;;;21251988;27;19924;-56
2022/08/23 12:21:27;;;;;;;;;;;;;;;;;;21252208;27;20425;-62
2022/08/23 12:31:29;;;;;;;;;;;;;;;;;;21251320;27;20274;-60
2022/08/23 12:41:30;;;;;;;;;;;;;;;;;;21251966;27;19931;-60
2022/08/23 12:51:32;;;;;;;;;;;;;;;;;;21230248;27;19930;-63
2022/08/23 13:01:35;;;;;;;;;;;;;;;;;;21250527;27;20364;-57
2022/08/23 13:11:40;;;;;;;;;;;;;;;;;;21253879;27;20358;-60
2022/08/23 13:21:44;;;;;;;;;;;;;;;;;;21248384;27;19924;-59
2022/08/23 13:31:45;;;;;;;;;;;;;;;;;;21246871;27;19930;-59
2022/08/23 13:41:47;;;;;;;;;;;;;;;;;;21248082;28;19923;-57
2022/08/23 13:51:51;;;;;;;;;;;;;;;;;;21246831;27;19924;-61
2022/08/23 14:01:53;;;;;;;;;;;;;;;;;;21228844;28;20341;-58
2022/08/23 14:11:54;;;;;;;;;;;;;;;;;;21255919;27;20347;-60
2022/08/23 14:21:56;;;;;;;;;;;;;;;;;;21260425;27;19968;-57
2022/08/23 14:31:58;;;;;;;;;;;;;;;;;;21260727;27;19927;-61
2022/08/23 14:41:59;;;;;;;;;;;;;;;;;;21260216;27;19928;-56
2022/08/23 14:52:01;;;;;;;;;;;;;;;;;;21258888;27;20014;-58
2022/08/23 15:02:03;;;;;;;;;;;;;;;;;;21259048;27;19931;-63
2022/08/23 15:12:05;;;;;;;;;;;;;;;;;;21263049;27;19969;-57
2022/08/23 15:22:07;;;;;;;;;;;;;;;;;;21269014;27;19931;-56
2022/08/23 15:32:09;;;;;;;;;;;;;;;;;;21263412;27;19930;-62
2022/08/23 15:42:11;;;;;;;;;;;;;;;;;;21255335;27;20303;-59
2022/08/23 15:52:13;;;;;;;;;;;;;;;;;;21255597;27;20004;-63
2022/08/23 16:02:15;;;;;;;;;;;;;;;;;;21254141;27;19976;-61
2022/08/23 16:12:19;;;;;;;;;;;;;;;;;;21252917;27;19973;-62
2022/08/23 16:22:21;;;;;;;;;;;;;;;;;;21252315;27;20294;-58
2022/08/23 16:32:23;;;;;;;;;;;;;;;;;;21251649;27;20022;-59
2022/08/23 16:42:25;;;;;;;;;;;;;;;;;;21250121;27;19953;-61
2022/08/23 16:52:27;;;;;;;;;;;;;;;;;;21251758;27;19931;-61
2022/08/23 17:02:29;;;;;;;;;;;;;;;;;;21253367;27;20006;-61
2022/08/23 17:12:30;;;;;;;;;;;;;;;;;;21251622;27;19923;-63
2022/08/23 17:22:32;;;;;;;;;;;;;;;;;;21249740;27;19930;-62
2022/08/23 17:32:35;;;;;;;;;;;;;;;;;;21248880;28;19953;-65
2022/08/23 17:42:37;;;;;;;;;;;;;;;;;;21252860;27;20339;-61
2022/08/23 17:52:40;;;;;;;;;;;;;;;;;;21263688;27;20367;-58
2022/08/23 18:02:42;;;;;;;;;;;;;;;;;;21263177;27;19923;-64
2022/08/23 18:12:44;;;;;;;;;;;;;;;;;;21261330;27;19963;-63
2022/08/23 18:22:46;;;;;;;;;;;;;;;;;;21260900;27;19923;-61
2022/08/23 18:32:48;;;;;;;;;;;;;;;;;;21260216;27;20297;-61
2022/08/23 18:42:49;;;;;;;;;;;;;;;;;;21259246;27;19923;-62
2022/08/23 18:52:51;;;;;;;;;;;;;;;;;;21257591;27;19970;-62
2022/08/23 19:02:53;;;;;;;;;;;;;;;;;;21257005;27;19927;-61
2022/08/23 19:12:54;;;;;;;;;;;;;;;;;;21256426;27;19935;-61
2022/08/23 19:22:56;;;;;;;;;;;;;;;;;;21255008;27;20340;-63
2022/08/23 19:32:58;;;;;;;;;;;;;;;;;;21255114;27;19934;-58
2022/08/23 19:42:59;;;;;;;;;;;;;;;;;;21255930;27;20019;-56
2022/08/23 19:53:01;;;;;;;;;;;;;;;;;;21254239;27;19924;-56
2022/08/23 20:03:03;;;;;;;;;;;;;;;;;;21249433;27;19931;-55
2022/08/23 20:13:05;;;;;;;;;;;;;;;;;;21250932;27;20004;-57
2022/08/23 20:33:29;;;;;;;;;;;;;;;;;;21249641;27;19923;-55
2022/08/23 20:43:32;;;;;;;;;;;;;;;;;;21249552;27;19979;-57
2022/08/23 20:53:34;;;;;;;;;;;;;;;;;;21252988;27;20344;-57
2022/08/23 21:03:35;;;;;;;;;;;;;;;;;;21249276;27;19931;-57
2022/08/23 21:13:42;;;;;;;;;;;;;;;;;;21249236;27;19935;-57
2022/08/23 21:23:44;;;;;;;;;;;;;;;;;;21276119;27;19934;-55
2022/08/23 21:33:46;;;;;;;;;;;;;;;;;;21276180;27;19931;-55
2022/08/23 21:43:48;;;;;;;;;;;;;;;;;;21275502;27;20401;-55
2022/08/23 21:53:49;;;;;;;;;;;;;;;;;;21276096;27;19931;-57
2022/08/23 22:03:51;;;;;;;;;;;;;;;;;;21274542;27;20006;-55
2022/08/23 22:13:54;;;;;;;;;;;;;;;;;;21274437;27;19924;-55
2022/08/23 22:23:56;;;;;;;;;;;;;;;;;;21273542;27;19931;-56
2022/08/23 22:33:58;;;;;;;;;;;;;;;;;;21261534;27;19927;-59
2022/08/23 22:44:00;;;;;;;;;;;;;;;;;;21259309;27;19935;-56
2022/08/23 22:54:01;;;;;;;;;;;;;;;;;;21258408;27;20321;-56
2022/08/23 23:04:04;;;;;;;;;;;;;;;;;;21257970;27;19923;-56
2022/08/23 23:14:06;;;;;;;;;;;;;;;;;;21238291;27;20348;-56
2022/08/23 23:24:08;;;;;;;;;;;;;;;;;;21256720;27;19923;-54
2022/08/23 23:34:10;;;;;;;;;;;;;;;;;;21255908;27;19923;-55
2022/08/23 23:44:11;;;;;;;;;;;;;;;;;;21254032;27;19949;-55
2022/08/23 23:54:13;;;;;;;;;;;;;;;;;;21255056;27;20308;-58
